createdAt,value
2022-07-29T00:00:08.123Z,13.50
2022-07-29T00:02:37.056Z,13.50
2022-07-29T00:05:06.492Z,13.50
2022-07-29T00:07:36.513Z,13.40
2022-07-29T00:10:06.471Z,13.40
2022-07-29T00:12:35.079Z,13.40
2022-07-29T00:15:04.054Z,13.40
2022-07-29T00:17:32.665Z,13.30
2022-07-29T00:20:01.364Z,13.30
2022-07-29T00:22:29.922Z,13.20
2022-07-29T00:24:59.890Z,13.10
2022-07-29T00:27:28.504Z,13.00
2022-07-29T00:29:57.099Z,12.90
2022-07-29T00:32:25.680Z,13.00
2022-07-29T00:35:11.857Z,12.80
2022-07-29T00:37:40.492Z,12.70
2022-07-29T00:40:11.408Z,12.80
2022-07-29T00:42:46.340Z,12.80
2022-07-29T00:45:15.622Z,12.80
2022-07-29T00:47:44.568Z,12.70
2022-07-29T00:50:14.780Z,12.70
2022-07-29T00:52:44.308Z,12.60
2022-07-29T00:55:17.730Z,12.60
2022-07-29T00:57:47.256Z,12.60
2022-07-29T01:00:19.347Z,12.60
2022-07-29T01:02:49.458Z,12.60
2022-07-29T01:05:20.563Z,12.50
2022-07-29T01:07:51.750Z,12.40
2022-07-29T01:10:23.228Z,12.50
2022-07-29T01:12:54.589Z,12.50
2022-07-29T01:15:23.450Z,12.50
2022-07-29T01:17:58.506Z,12.50
2022-07-29T01:20:39.804Z,12.60
2022-07-29T01:23:34.120Z,12.60
2022-07-29T01:26:37.453Z,12.60
2022-07-29T01:29:25.018Z,12.50
2022-07-29T01:32:01.086Z,12.50
2022-07-29T01:34:37.407Z,12.50
2022-07-29T01:37:17.436Z,12.50
2022-07-29T01:39:48.141Z,12.40
2022-07-29T01:42:25.713Z,12.40
2022-07-29T01:44:59.518Z,12.30
2022-07-29T01:47:33.588Z,12.40
2022-07-29T01:50:10.677Z,12.40
2022-07-29T01:52:45.182Z,12.40
2022-07-29T01:55:18.677Z,12.30
2022-07-29T01:57:51.038Z,12.20
2022-07-29T02:00:22.451Z,12.20
2022-07-29T02:02:53.223Z,12.00
2022-07-29T02:05:24.826Z,12.00
2022-07-29T02:07:55.313Z,12.00
2022-07-29T02:10:27.779Z,12.00
2022-07-29T02:12:58.489Z,11.90
2022-07-29T02:15:32.914Z,11.90
2022-07-29T02:18:06.766Z,12.00
2022-07-29T02:20:36.950Z,12.20
2022-07-29T02:23:06.829Z,12.30
2022-07-29T02:25:38.137Z,12.30
2022-07-29T02:28:09.557Z,12.30
2022-07-29T02:30:44.016Z,12.20
2022-07-29T02:33:16.651Z,12.20
2022-07-29T02:35:49.450Z,12.20
2022-07-29T02:38:36.609Z,12.10
2022-07-29T02:41:10.056Z,12.10
2022-07-29T02:43:39.559Z,12.10
2022-07-29T02:46:28.341Z,12.10
2022-07-29T02:49:02.195Z,12.10
2022-07-29T02:51:43.538Z,12.10
2022-07-29T02:54:21.701Z,12.10
2022-07-29T02:56:53.734Z,12.20
2022-07-29T02:59:28.356Z,12.20
2022-07-29T03:02:01.475Z,12.20
2022-07-29T03:04:32.999Z,12.30
2022-07-29T03:07:03.587Z,12.20
2022-07-29T03:09:32.880Z,12.30
2022-07-29T03:12:02.718Z,12.20
2022-07-29T03:14:33.785Z,12.20
2022-07-29T03:17:05.449Z,12.20
2022-07-29T03:19:35.299Z,12.40
2022-07-29T03:22:04.322Z,12.40
2022-07-29T03:24:34.890Z,12.40
2022-07-29T03:27:04.217Z,12.50
2022-07-29T03:29:34.550Z,12.50
2022-07-29T03:32:08.734Z,12.50
2022-07-29T03:34:39.334Z,12.60
2022-07-29T03:37:09.118Z,12.70
2022-07-29T03:39:43.121Z,12.90
2022-07-29T03:42:16.009Z,13.10
2022-07-29T03:44:49.346Z,13.70
2022-07-29T03:47:35.513Z,14.40
2022-07-29T03:50:17.201Z,15.00
2022-07-29T03:52:46.255Z,15.40
2022-07-29T03:55:15.882Z,15.30
2022-07-29T03:57:46.832Z,15.10
2022-07-29T04:00:18.031Z,15.20
2022-07-29T04:02:49.913Z,15.50
2022-07-29T04:05:19.626Z,16.00
2022-07-29T04:07:49.086Z,16.50
2022-07-29T04:10:30.382Z,16.60
2022-07-29T04:13:01.487Z,16.60
2022-07-29T04:15:31.145Z,16.80
2022-07-29T04:18:02.027Z,17.20
2022-07-29T04:20:30.719Z,17.50
2022-07-29T04:22:59.297Z,17.60
2022-07-29T04:25:27.947Z,17.80
2022-07-29T04:28:02.273Z,18.00
2022-07-29T04:30:31.609Z,18.20
2022-07-29T04:33:02.787Z,18.60
2022-07-29T04:35:38.436Z,18.60
2022-07-29T04:38:15.716Z,18.60
2022-07-29T04:40:45.642Z,18.80
2022-07-29T04:43:17.013Z,18.80
2022-07-29T04:45:51.594Z,19.00
2022-07-29T04:48:28.361Z,18.90
2022-07-29T04:50:58.118Z,18.80
2022-07-29T04:53:28.045Z,18.90
2022-07-29T04:55:57.091Z,18.90
2022-07-29T04:58:25.910Z,19.00
2022-07-29T05:00:54.534Z,18.90
2022-07-29T05:03:25.157Z,19.00
2022-07-29T05:05:54.193Z,19.30
2022-07-29T05:08:23.116Z,19.50
2022-07-29T05:10:52.042Z,19.50
2022-07-29T05:13:21.061Z,19.50
2022-07-29T05:15:50.098Z,19.70
2022-07-29T05:18:19.114Z,19.50
2022-07-29T05:20:49.459Z,19.50
2022-07-29T05:23:19.092Z,19.40
2022-07-29T05:25:48.437Z,19.40
2022-07-29T05:28:17.617Z,19.50
2022-07-29T05:30:46.697Z,19.80
2022-07-29T05:33:35.003Z,20.10
2022-07-29T05:36:08.206Z,20.60
2022-07-29T05:38:38.099Z,20.70
2022-07-29T05:41:07.658Z,20.50
2022-07-29T05:43:36.636Z,20.40
2022-07-29T05:46:05.765Z,20.30
2022-07-29T05:48:34.713Z,19.90
2022-07-29T05:51:06.036Z,19.80
2022-07-29T05:53:34.977Z,19.60
2022-07-29T05:56:06.417Z,19.60
2022-07-29T05:58:35.901Z,19.50
2022-07-29T06:01:04.897Z,19.50
2022-07-29T06:03:33.529Z,19.60
2022-07-29T06:06:02.156Z,19.80
2022-07-29T06:08:32.201Z,19.90
2022-07-29T06:11:00.824Z,20.00
2022-07-29T06:13:29.429Z,19.90
2022-07-29T06:15:58.148Z,20.10
2022-07-29T06:18:27.943Z,20.30
2022-07-29T06:20:56.648Z,20.10
2022-07-29T06:23:25.312Z,20.10
2022-07-29T06:25:55.243Z,20.30
2022-07-29T06:28:24.076Z,20.30
2022-07-29T06:30:52.718Z,20.50
2022-07-29T06:33:21.537Z,20.60
2022-07-29T06:35:53.575Z,20.80
2022-07-29T06:38:33.949Z,21.00
2022-07-29T06:41:08.588Z,21.30
2022-07-29T06:43:50.429Z,21.30
2022-07-29T06:46:21.902Z,21.50
2022-07-29T06:48:51.109Z,21.60
2022-07-29T06:51:22.729Z,21.70
2022-07-29T06:54:00.633Z,21.70
2022-07-29T06:56:39.037Z,21.90
2022-07-29T06:59:10.081Z,21.80
2022-07-29T07:01:39.448Z,21.70
2022-07-29T07:04:09.687Z,21.60
2022-07-29T07:06:38.710Z,21.70
2022-07-29T07:09:07.382Z,21.90
2022-07-29T07:11:37.410Z,21.90
2022-07-29T07:14:06.060Z,22.10
2022-07-29T07:16:34.896Z,22.10
2022-07-29T07:19:03.856Z,22.20
2022-07-29T07:21:32.710Z,22.30
2022-07-29T07:24:01.688Z,22.40
2022-07-29T07:26:30.365Z,22.50
2022-07-29T07:29:01.371Z,22.70
2022-07-29T07:31:30.135Z,22.90
2022-07-29T07:33:59.560Z,22.80
2022-07-29T07:36:28.185Z,22.70
2022-07-29T07:38:56.993Z,22.70
2022-07-29T07:41:25.656Z,23.00
2022-07-29T07:43:54.216Z,22.80
2022-07-29T07:46:24.537Z,22.50
2022-07-29T07:48:54.053Z,22.70
2022-07-29T07:51:22.756Z,22.90
2022-07-29T07:53:51.376Z,22.60
2022-07-29T07:56:20.111Z,22.40
2022-07-29T07:58:49.023Z,22.50
2022-07-29T08:01:20.006Z,22.70
2022-07-29T08:03:50.174Z,22.50
2022-07-29T08:06:18.851Z,22.70
2022-07-29T08:08:47.406Z,22.60
2022-07-29T08:11:16.037Z,22.60
2022-07-29T08:13:44.880Z,22.60
2022-07-29T08:16:14.084Z,22.50
2022-07-29T08:18:44.422Z,22.60
2022-07-29T08:21:15.870Z,22.70
2022-07-29T08:23:58.929Z,22.80
2022-07-29T08:26:29.942Z,22.70
2022-07-29T08:28:58.789Z,22.80
2022-07-29T08:31:27.840Z,23.00
2022-07-29T08:33:57.243Z,23.10
2022-07-29T08:36:28.286Z,23.00
2022-07-29T08:38:57.380Z,23.30
2022-07-29T08:41:26.673Z,23.50
2022-07-29T08:43:55.430Z,23.80
2022-07-29T08:46:24.581Z,23.90
2022-07-29T08:48:53.290Z,23.80
2022-07-29T08:51:22.838Z,23.70
2022-07-29T08:53:53.393Z,23.40
2022-07-29T08:56:22.739Z,23.50
2022-07-29T08:58:52.705Z,23.80
2022-07-29T09:01:35.882Z,23.80
2022-07-29T09:04:14.309Z,23.80
2022-07-29T09:06:47.255Z,23.80
2022-07-29T09:09:17.469Z,23.80
2022-07-29T09:11:46.153Z,23.90
2022-07-29T09:14:15.641Z,23.80
2022-07-29T09:16:54.240Z,23.70
2022-07-29T09:19:28.896Z,24.00
2022-07-29T09:22:03.073Z,24.00
2022-07-29T09:24:55.646Z,24.10
2022-07-29T09:27:27.211Z,24.10
2022-07-29T09:30:00.552Z,24.00
2022-07-29T09:32:30.641Z,24.00
2022-07-29T09:35:22.332Z,24.00
2022-07-29T09:37:51.921Z,23.90
2022-07-29T09:40:23.708Z,24.10
2022-07-29T09:42:53.860Z,24.10
2022-07-29T09:45:31.265Z,24.50
2022-07-29T09:48:04.022Z,24.90
2022-07-29T09:50:41.281Z,24.90
2022-07-29T09:53:11.762Z,24.90
2022-07-29T09:55:57.038Z,24.90
2022-07-29T09:58:25.829Z,24.70
2022-07-29T10:00:56.307Z,24.50
2022-07-29T10:03:25.586Z,24.60
2022-07-29T10:06:08.848Z,24.50
2022-07-29T10:08:38.159Z,24.50
2022-07-29T10:11:14.446Z,24.50
2022-07-29T10:13:44.233Z,24.50
2022-07-29T10:16:13.974Z,24.60
2022-07-29T10:18:43.870Z,24.70
2022-07-29T10:21:35.189Z,24.70
2022-07-29T10:24:01.734Z,24.90
2022-07-29T10:26:32.368Z,24.80
2022-07-29T10:29:00.958Z,24.70
2022-07-29T10:31:38.688Z,24.70
2022-07-29T10:34:19.975Z,24.90
2022-07-29T10:36:58.719Z,25.10
2022-07-29T10:39:49.676Z,25.00
2022-07-29T10:42:29.511Z,24.90
2022-07-29T10:45:04.722Z,25.00
2022-07-29T10:47:35.315Z,25.30
2022-07-29T10:50:06.466Z,25.50
2022-07-29T10:52:57.490Z,25.50
2022-07-29T10:55:37.812Z,25.70
2022-07-29T10:58:22.207Z,25.80
2022-07-29T11:00:52.779Z,25.90
2022-07-29T11:03:49.707Z,26.10
2022-07-29T11:06:27.997Z,25.90
2022-07-29T11:12:48.361Z,25.90
2022-07-29T11:15:21.819Z,25.80
2022-07-29T11:18:15.292Z,25.90
2022-07-29T11:20:48.233Z,25.90
2022-07-29T11:23:33.774Z,26.10
2022-07-29T11:26:18.588Z,26.50
2022-07-29T11:29:03.109Z,26.70
2022-07-29T11:31:39.496Z,26.50
2022-07-29T11:34:22.746Z,26.20
2022-07-29T11:37:17.694Z,26.10
2022-07-29T11:39:48.528Z,25.90
2022-07-29T11:42:41.802Z,25.90
2022-07-29T11:45:43.141Z,26.20
2022-07-29T11:48:29.340Z,26.40
2022-07-29T11:50:55.891Z,26.50
2022-07-29T11:53:29.090Z,26.50
2022-07-29T11:56:03.631Z,26.80
2022-07-29T11:58:33.579Z,27.10
2022-07-29T12:01:04.862Z,27.30
2022-07-29T12:03:36.814Z,27.10
2022-07-29T12:06:15.623Z,27.00
2022-07-29T12:08:47.435Z,26.80
2022-07-29T12:11:21.202Z,26.80
2022-07-29T12:13:51.122Z,26.60
2022-07-29T12:16:26.005Z,26.80
2022-07-29T12:19:02.129Z,26.90
2022-07-29T12:21:31.528Z,27.10
2022-07-29T12:24:09.374Z,27.00
2022-07-29T12:26:40.566Z,26.80
2022-07-29T12:29:20.433Z,26.80
2022-07-29T12:32:04.472Z,26.60
2022-07-29T12:34:35.940Z,26.40
2022-07-29T12:37:05.536Z,26.30
2022-07-29T12:39:35.643Z,26.20
2022-07-29T12:42:13.962Z,26.20
2022-07-29T12:44:50.992Z,26.60
2022-07-29T12:47:20.815Z,26.70
2022-07-29T12:49:52.942Z,27.00
2022-07-29T12:52:29.392Z,26.90
2022-07-29T12:54:58.344Z,26.60
2022-07-29T12:57:27.514Z,26.50
2022-07-29T13:00:09.083Z,26.80
2022-07-29T13:02:37.947Z,27.00
2022-07-29T13:05:09.825Z,27.30
2022-07-29T13:07:54.395Z,27.30
2022-07-29T13:10:26.872Z,27.00
2022-07-29T13:13:06.252Z,26.80
2022-07-29T13:15:36.144Z,26.80
2022-07-29T13:18:06.136Z,26.90
2022-07-29T13:20:36.528Z,27.00
2022-07-29T13:23:05.202Z,27.00
2022-07-29T13:25:35.349Z,27.10
2022-07-29T13:28:03.943Z,27.10
2022-07-29T13:30:32.681Z,27.20
2022-07-29T13:33:01.587Z,27.10
2022-07-29T13:35:30.739Z,27.10
2022-07-29T13:38:00.725Z,27.10
2022-07-29T13:40:30.163Z,27.00
2022-07-29T13:42:58.831Z,26.80
2022-07-29T13:45:29.003Z,26.70
2022-07-29T13:47:57.981Z,26.60
2022-07-29T13:50:26.619Z,26.50
2022-07-29T13:52:55.257Z,26.50
2022-07-29T13:55:25.387Z,26.60
2022-07-29T13:57:54.049Z,26.60
2022-07-29T14:00:24.568Z,26.60
2022-07-29T14:02:53.170Z,26.60
2022-07-29T14:05:21.924Z,26.70
2022-07-29T14:07:50.520Z,26.90
2022-07-29T14:10:20.248Z,27.00
2022-07-29T14:12:50.472Z,27.10
2022-07-29T14:15:19.370Z,27.30
2022-07-29T14:17:48.014Z,27.40
2022-07-29T14:20:17.248Z,27.50
2022-07-29T14:22:45.980Z,27.30
2022-07-29T14:25:15.687Z,27.40
2022-07-29T14:27:45.060Z,27.10
2022-07-29T14:30:16.017Z,26.90
2022-07-29T14:32:45.839Z,27.00
2022-07-29T14:35:14.683Z,27.00
2022-07-29T14:37:43.420Z,27.00
2022-07-29T14:40:13.086Z,27.00
2022-07-29T14:42:42.182Z,27.10
2022-07-29T14:45:11.774Z,27.00
2022-07-29T14:47:41.794Z,26.90
2022-07-29T14:50:11.266Z,26.90
2022-07-29T14:52:39.992Z,27.00
2022-07-29T14:55:16.378Z,26.90
2022-07-29T14:57:48.770Z,26.90
2022-07-29T15:00:18.133Z,26.70
2022-07-29T15:03:03.532Z,26.60
2022-07-29T15:05:32.855Z,26.60
2022-07-29T15:08:01.960Z,26.80
2022-07-29T15:10:30.755Z,26.90
2022-07-29T15:12:59.388Z,27.00
2022-07-29T15:15:28.333Z,27.00
2022-07-29T15:17:58.366Z,27.20
2022-07-29T15:20:28.090Z,26.90
2022-07-29T15:22:57.452Z,26.80
2022-07-29T15:25:26.411Z,26.80
2022-07-29T15:28:01.202Z,26.60
2022-07-29T15:30:33.661Z,26.60
2022-07-29T15:33:05.210Z,26.70
2022-07-29T15:35:40.610Z,26.90
2022-07-29T15:38:10.014Z,26.90
2022-07-29T15:40:39.846Z,26.80
2022-07-29T15:43:08.948Z,26.60
2022-07-29T15:45:40.365Z,26.50
2022-07-29T15:48:13.270Z,26.60
2022-07-29T15:50:46.951Z,26.70
2022-07-29T15:53:16.369Z,26.80
2022-07-29T15:55:46.243Z,26.90
2022-07-29T15:58:14.819Z,26.80
2022-07-29T16:00:43.531Z,26.80
2022-07-29T16:03:13.778Z,26.60
2022-07-29T16:05:42.814Z,26.50
2022-07-29T16:08:11.455Z,26.30
2022-07-29T16:10:40.189Z,26.20
2022-07-29T16:13:08.883Z,26.20
2022-07-29T16:15:37.490Z,26.20
2022-07-29T16:18:06.172Z,26.10
2022-07-29T16:20:36.231Z,26.10
2022-07-29T16:23:05.491Z,26.10
2022-07-29T16:25:58.748Z,26.00
2022-07-29T16:28:23.034Z,26.10
2022-07-29T16:30:52.096Z,26.20
2022-07-29T16:33:20.698Z,26.20
2022-07-29T16:35:50.725Z,26.20
2022-07-29T16:38:19.490Z,26.20
2022-07-29T16:40:48.403Z,26.30
2022-07-29T16:43:17.148Z,26.40
2022-07-29T16:45:47.104Z,26.50
2022-07-29T16:48:17.945Z,26.50
2022-07-29T16:50:47.170Z,26.30
2022-07-29T16:53:17.792Z,26.10
2022-07-29T16:55:46.932Z,26.00
2022-07-29T16:58:15.965Z,25.80
2022-07-29T17:00:44.641Z,25.80
2022-07-29T17:03:13.660Z,26.00
2022-07-29T17:05:50.736Z,26.10
2022-07-29T17:08:24.796Z,26.00
2022-07-29T17:10:53.683Z,25.80
2022-07-29T17:13:22.585Z,25.60
2022-07-29T17:15:51.184Z,25.70
2022-07-29T17:18:19.768Z,25.80
2022-07-29T17:20:48.482Z,25.90
2022-07-29T17:23:17.096Z,25.80
2022-07-29T17:25:47.469Z,25.60
2022-07-29T17:28:16.359Z,25.40
2022-07-29T17:30:45.350Z,25.60
2022-07-29T17:33:14.116Z,25.70
2022-07-29T17:36:00.392Z,25.60
2022-07-29T17:38:29.027Z,25.70
2022-07-29T17:40:59.071Z,25.70
2022-07-29T17:43:28.086Z,25.50
2022-07-29T17:45:59.455Z,25.20
2022-07-29T17:48:28.315Z,25.00
2022-07-29T17:50:57.890Z,24.80
2022-07-29T17:53:26.550Z,24.70
2022-07-29T17:55:56.210Z,24.70
2022-07-29T17:58:26.845Z,24.60
2022-07-29T18:00:55.533Z,24.50
2022-07-29T18:03:24.821Z,24.40
2022-07-29T18:05:53.667Z,24.30
2022-07-29T18:08:22.286Z,24.20
2022-07-29T18:10:51.172Z,24.20
2022-07-29T18:13:20.261Z,24.10
2022-07-29T18:15:50.872Z,24.00
2022-07-29T18:18:20.210Z,24.00
2022-07-29T18:20:49.473Z,23.90
2022-07-29T18:23:18.342Z,23.80
2022-07-29T18:25:47.411Z,23.80
2022-07-29T18:28:16.528Z,23.70
2022-07-29T18:30:46.221Z,23.60
2022-07-29T18:33:21.756Z,23.50
2022-07-29T18:36:10.928Z,23.40
2022-07-29T18:38:41.228Z,23.30
2022-07-29T18:41:09.954Z,23.20
2022-07-29T18:43:38.581Z,23.00
2022-07-29T18:46:07.480Z,22.90
2022-07-29T18:48:37.514Z,22.80
2022-07-29T18:51:09.400Z,22.70
2022-07-29T18:53:38.584Z,22.60
2022-07-29T18:56:07.319Z,22.50
2022-07-29T18:58:38.197Z,22.20
2022-07-29T19:01:06.901Z,22.10
2022-07-29T19:03:37.629Z,21.90
2022-07-29T19:06:06.392Z,21.80
2022-07-29T19:08:37.948Z,21.70
2022-07-29T19:11:06.776Z,21.50
2022-07-29T19:13:37.082Z,21.50
2022-07-29T19:16:06.262Z,21.40
2022-07-29T19:18:34.965Z,21.30
2022-07-29T19:21:05.073Z,21.20
2022-07-29T19:24:00.212Z,21.10
2022-07-29T19:26:22.701Z,20.90
2022-07-29T19:28:51.670Z,20.80
2022-07-29T19:31:20.315Z,20.70
2022-07-29T19:33:49.173Z,20.60
2022-07-29T19:36:19.134Z,20.60
2022-07-29T19:38:47.744Z,20.50
2022-07-29T19:41:17.161Z,20.40
2022-07-29T19:43:49.872Z,20.40
2022-07-29T19:46:21.556Z,20.20
2022-07-29T19:48:50.506Z,20.10
2022-07-29T19:51:20.472Z,19.90
2022-07-29T19:53:49.130Z,19.80
2022-07-29T19:56:18.071Z,19.70
2022-07-29T19:58:46.682Z,19.60
2022-07-29T20:01:16.701Z,19.60
2022-07-29T20:03:46.582Z,19.50
2022-07-29T20:06:15.316Z,19.40
2022-07-29T20:08:45.281Z,19.40
2022-07-29T20:11:13.978Z,19.30
2022-07-29T20:13:42.705Z,19.30
2022-07-29T20:16:11.505Z,19.20
2022-07-29T20:18:40.186Z,19.10
2022-07-29T20:21:08.791Z,19.00
2022-07-29T20:23:37.469Z,19.00
2022-07-29T20:26:09.694Z,18.90
2022-07-29T20:28:40.244Z,18.90
2022-07-29T20:31:09.112Z,18.80
2022-07-29T20:33:38.058Z,18.80
2022-07-29T20:36:07.149Z,18.80
2022-07-29T20:38:35.728Z,18.70
2022-07-29T20:41:04.977Z,18.70
2022-07-29T20:43:36.030Z,18.60
2022-07-29T20:46:08.337Z,18.60
2022-07-29T20:48:37.258Z,18.60
2022-07-29T20:51:06.378Z,18.50
2022-07-29T20:53:35.367Z,18.50
2022-07-29T20:56:04.055Z,18.50
2022-07-29T20:58:34.261Z,18.50
2022-07-29T21:01:03.119Z,18.50
2022-07-29T21:03:32.490Z,18.60
2022-07-29T21:06:01.394Z,18.60
2022-07-29T21:08:30.036Z,18.60
2022-07-29T21:10:58.789Z,18.60
2022-07-29T21:13:27.390Z,18.50
2022-07-29T21:16:01.957Z,18.50
2022-07-29T21:18:36.893Z,18.50
2022-07-29T21:21:06.451Z,18.40
2022-07-29T21:23:35.701Z,18.30
2022-07-29T21:26:05.690Z,18.20
2022-07-29T21:28:36.988Z,18.10
2022-07-29T21:31:09.047Z,18.00
2022-07-29T21:33:38.221Z,18.00
2022-07-29T21:36:42.370Z,18.00
2022-07-29T21:38:56.927Z,18.10
2022-07-29T21:41:25.623Z,18.20
2022-07-29T21:43:54.631Z,18.10
2022-07-29T21:46:28.358Z,18.00
2022-07-29T21:48:57.097Z,17.90
2022-07-29T21:51:25.703Z,17.70
2022-07-29T21:53:54.307Z,17.70
2022-07-29T21:56:26.344Z,17.60
2022-07-29T21:58:56.547Z,17.60
2022-07-29T22:01:27.005Z,17.50
2022-07-29T22:03:55.755Z,17.50
2022-07-29T22:06:24.708Z,17.50
2022-07-29T22:08:53.279Z,17.50
2022-07-29T22:11:21.889Z,17.60
2022-07-29T22:13:50.555Z,17.60
2022-07-29T22:16:19.321Z,17.60
2022-07-29T22:18:49.438Z,17.50
2022-07-29T22:21:18.124Z,17.30
2022-07-29T22:23:46.748Z,17.30
2022-07-29T22:26:15.387Z,17.20
2022-07-29T22:28:44.295Z,17.00
2022-07-29T22:31:13.354Z,16.90
2022-07-29T22:33:42.120Z,16.80
2022-07-29T22:36:12.089Z,16.80
2022-07-29T22:38:40.961Z,16.80
2022-07-29T22:41:09.649Z,16.80
2022-07-29T22:43:44.443Z,16.90
2022-07-29T22:46:13.125Z,16.90
2022-07-29T22:48:41.812Z,17.00
2022-07-29T22:51:11.884Z,17.00
2022-07-29T22:53:40.601Z,17.00
2022-07-29T22:56:09.326Z,17.10
2022-07-29T22:58:37.897Z,17.20
2022-07-29T23:01:06.704Z,17.20
2022-07-29T23:03:35.388Z,17.30
2022-07-29T23:06:04.113Z,17.40
2022-07-29T23:08:34.492Z,17.40
2022-07-29T23:11:03.308Z,17.40
2022-07-29T23:13:32.616Z,17.40
2022-07-29T23:16:02.047Z,17.40
2022-07-29T23:18:30.721Z,17.40
2022-07-29T23:20:59.458Z,17.40
2022-07-29T23:23:28.466Z,17.40
2022-07-29T23:26:02.445Z,17.30
2022-07-29T23:28:31.058Z,17.30
2022-07-29T23:30:59.755Z,17.20
2022-07-29T23:33:28.736Z,17.20
2022-07-29T23:35:57.490Z,17.20
2022-07-29T23:38:26.084Z,17.20
2022-07-29T23:40:54.672Z,17.20
2022-07-29T23:43:24.614Z,17.10
2022-07-29T23:45:53.678Z,17.10
2022-07-29T23:48:22.478Z,17.10
2022-07-29T23:50:51.113Z,17.00
2022-07-29T23:53:19.810Z,17.00
2022-07-29T23:55:48.408Z,17.00
2022-07-29T23:58:17.087Z,16.90
